コペンハーゲン の空港の天気 - METARとTAF

コペンハーゲン国際空港 ( EKCH / CPH ) - デンマーク コペンハーゲン
飛行場実況気象(Metar)
観測時間10/20 04:50 CEST (10/20 02:50 UTC)
風向・風速東南東 7m/s
視程10km以上
天気現象
全天の8割程度の雲 雲底高度 210m
気温12℃
湿度88%
気圧1014hPa
METAREKCH 200250Z 11013KT 9999 BKN007 12/10 Q1014 NOSIG
過去の天気等 Google飛行場航空写真 Wunderground天気予報

過去48時間のMETAR

飛行場予報(TAF)
発表時間: 10/20 00:53 CEST (10/19 22:53 UTC)
予報対象時間: 20日2時 CEST ~ 21日2時 CEST
風向・風速東南東 7m/s
視程10km以上
全天の4割程度の雲 雲底高度 300m
全天の8割程度の雲 雲底高度 460m
20日2時 CEST ~ 20日8時 CEST に一時的に
全天の8割程度の雲 雲底高度 240m
20日8時 CEST ~ 20日12時 CEST に一時的に
視程4,000m
天気現象もや
全天の8割程度の雲 雲底高度 120m
20日12時 CEST ~ 20日20時 CEST に一時的に
全天の8割程度の雲 雲底高度 240m
20日20時 CEST ~ 21日2時 CEST に一時的に
天気現象弱い雨
全天の8割程度の雲 雲底高度 120m
TAF EKCH 192253Z 2000/2024 11014KT 9999 SCT010 BKN015
TEMPO 2000/2006 BKN008
TEMPO 2006/2010 4000 BR BKN004
TEMPO 2010/2018 BKN008
TEMPO 2018/2024 -RA BKN004